sensor_id;sensor_type;location;lat;lon;timestamp;P1;durP1;ratioP1;P2;durP2;ratioP2
75400;SDS011;63974;47.538;18.972;2023-02-01T00:00:12;9.30;;;3.70;;
75400;SDS011;63974;47.538;18.972;2023-02-01T00:03:16;9.25;;;3.53;;
75400;SDS011;63974;47.538;18.972;2023-02-01T00:06:21;7.60;;;4.00;;
75400;SDS011;63974;47.538;18.972;2023-02-01T00:09:24;7.25;;;3.97;;
75400;SDS011;63974;47.538;18.972;2023-02-01T00:12:26;7.75;;;4.90;;
75400;SDS011;63974;47.538;18.972;2023-02-01T00:15:29;9.00;;;4.13;;
75400;SDS011;63974;47.538;18.972;2023-02-01T00:18:32;8.95;;;4.85;;
75400;SDS011;63974;47.538;18.972;2023-02-01T00:21:35;6.95;;;4.97;;
75400;SDS011;63974;47.538;18.972;2023-02-01T00:24:38;8.75;;;4.05;;
75400;SDS011;63974;47.538;18.972;2023-02-01T00:27:41;27.17;;;9.23;;
75400;SDS011;63974;47.538;18.972;2023-02-01T00:30:43;19.23;;;6.97;;
75400;SDS011;63974;47.538;18.972;2023-02-01T00:33:47;24.10;;;7.13;;
75400;SDS011;63974;47.538;18.972;2023-02-01T00:36:50;37.25;;;13.25;;
75400;SDS011;63974;47.538;18.972;2023-02-01T00:39:53;23.25;;;9.75;;
75400;SDS011;63974;47.538;18.972;2023-02-01T00:42:58;24.00;;;9.10;;
75400;SDS011;63974;47.538;18.972;2023-02-01T00:46:01;42.87;;;12.50;;
75400;SDS011;63974;47.538;18.972;2023-02-01T00:49:04;14.27;;;5.78;;
75400;SDS011;63974;47.538;18.972;2023-02-01T00:52:07;12.93;;;4.90;;
75400;SDS011;63974;47.538;18.972;2023-02-01T00:55:10;11.20;;;4.00;;
75400;SDS011;63974;47.538;18.972;2023-02-01T00:58:14;12.98;;;5.30;;
75400;SDS011;63974;47.538;18.972;2023-02-01T01:01:18;10.03;;;4.43;;
75400;SDS011;63974;47.538;18.972;2023-02-01T01:04:23;13.40;;;4.32;;
75400;SDS011;63974;47.538;18.972;2023-02-01T01:07:27;13.82;;;5.57;;
75400;SDS011;63974;47.538;18.972;2023-02-01T01:10:30;16.83;;;5.93;;
75400;SDS011;63974;47.538;18.972;2023-02-01T01:13:34;19.20;;;6.15;;
75400;SDS011;63974;47.538;18.972;2023-02-01T01:16:37;7.23;;;3.33;;
75400;SDS011;63974;47.538;18.972;2023-02-01T01:19:40;7.75;;;3.25;;
75400;SDS011;63974;47.538;18.972;2023-02-01T01:22:43;5.53;;;2.85;;
75400;SDS011;63974;47.538;18.972;2023-02-01T01:25:46;5.80;;;3.00;;
75400;SDS011;63974;47.538;18.972;2023-02-01T01:28:49;7.53;;;2.85;;
75400;SDS011;63974;47.538;18.972;2023-02-01T01:31:53;8.00;;;2.73;;
75400;SDS011;63974;47.538;18.972;2023-02-01T01:34:56;8.32;;;3.33;;
75400;SDS011;63974;47.538;18.972;2023-02-01T01:37:59;6.63;;;3.45;;
75400;SDS011;63974;47.538;18.972;2023-02-01T01:41:03;7.43;;;3.22;;
75400;SDS011;63974;47.538;18.972;2023-02-01T01:44:53;9.63;;;2.90;;
75400;SDS011;63974;47.538;18.972;2023-02-01T01:47:48;6.83;;;3.10;;
75400;SDS011;63974;47.538;18.972;2023-02-01T01:51:16;5.72;;;2.85;;
75400;SDS011;63974;47.538;18.972;2023-02-01T01:54:24;15.38;;;5.38;;
75400;SDS011;63974;47.538;18.972;2023-02-01T01:57:35;7.53;;;3.80;;
75400;SDS011;63974;47.538;18.972;2023-02-01T02:00:42;6.68;;;3.30;;
75400;SDS011;63974;47.538;18.972;2023-02-01T02:03:46;9.00;;;3.87;;
75400;SDS011;63974;47.538;18.972;2023-02-01T02:06:52;7.85;;;3.90;;
75400;SDS011;63974;47.538;18.972;2023-02-01T02:10:06;10.32;;;3.90;;
75400;SDS011;63974;47.538;18.972;2023-02-01T02:13:13;9.50;;;3.60;;
75400;SDS011;63974;47.538;18.972;2023-02-01T02:26:39;8.23;;;3.60;;
75400;SDS011;63974;47.538;18.972;2023-02-01T02:30:09;6.32;;;3.42;;
75400;SDS011;63974;47.538;18.972;2023-02-01T02:33:45;7.68;;;4.07;;
75400;SDS011;63974;47.538;18.972;2023-02-01T02:37:32;7.10;;;3.20;;
75400;SDS011;63974;47.538;18.972;2023-02-01T02:40:42;8.60;;;3.30;;
75400;SDS011;63974;47.538;18.972;2023-02-01T02:43:52;6.63;;;3.83;;
75400;SDS011;63974;47.538;18.972;2023-02-01T02:47:23;8.48;;;3.42;;
75400;SDS011;63974;47.538;18.972;2023-02-01T02:50:35;9.20;;;3.50;;
75400;SDS011;63974;47.538;18.972;2023-02-01T02:57:50;9.43;;;3.70;;
75400;SDS011;63974;47.538;18.972;2023-02-01T03:01:12;10.13;;;3.85;;
75400;SDS011;63974;47.538;18.972;2023-02-01T03:04:33;7.50;;;3.28;;
75400;SDS011;63974;47.538;18.972;2023-02-01T03:11:09;7.53;;;3.33;;
75400;SDS011;63974;47.538;18.972;2023-02-01T03:14:15;5.88;;;3.30;;
75400;SDS011;63974;47.538;18.972;2023-02-01T03:17:22;7.82;;;3.55;;
75400;SDS011;63974;47.538;18.972;2023-02-01T03:20:31;6.82;;;3.70;;
75400;SDS011;63974;47.538;18.972;2023-02-01T03:23:35;8.05;;;4.03;;
75400;SDS011;63974;47.538;18.972;2023-02-01T03:26:41;9.87;;;4.20;;
75400;SDS011;63974;47.538;18.972;2023-02-01T03:30:35;12.00;;;4.28;;
75400;SDS011;63974;47.538;18.972;2023-02-01T03:33:25;9.52;;;4.03;;
75400;SDS011;63974;47.538;18.972;2023-02-01T03:36:30;6.47;;;3.47;;
75400;SDS011;63974;47.538;18.972;2023-02-01T03:39:56;10.73;;;3.92;;
75400;SDS011;63974;47.538;18.972;2023-02-01T03:43:04;6.53;;;3.20;;
75400;SDS011;63974;47.538;18.972;2023-02-01T03:46:16;6.47;;;3.08;;
75400;SDS011;63974;47.538;18.972;2023-02-01T03:49:31;9.52;;;3.60;;
75400;SDS011;63974;47.538;18.972;2023-02-01T03:52:43;5.78;;;3.30;;
75400;SDS011;63974;47.538;18.972;2023-02-01T03:55:50;5.18;;;2.90;;
75400;SDS011;63974;47.538;18.972;2023-02-01T03:58:55;9.63;;;3.23;;
75400;SDS011;63974;47.538;18.972;2023-02-01T04:02:07;8.10;;;3.28;;
75400;SDS011;63974;47.538;18.972;2023-02-01T04:05:10;5.35;;;3.20;;
75400;SDS011;63974;47.538;18.972;2023-02-01T04:08:20;6.68;;;2.50;;
75400;SDS011;63974;47.538;18.972;2023-02-01T04:11:24;9.35;;;4.38;;
75400;SDS011;63974;47.538;18.972;2023-02-01T04:14:29;6.57;;;3.03;;
75400;SDS011;63974;47.538;18.972;2023-02-01T04:17:32;10.10;;;3.95;;
75400;SDS011;63974;47.538;18.972;2023-02-01T04:20:35;5.75;;;3.20;;
75400;SDS011;63974;47.538;18.972;2023-02-01T04:23:38;6.28;;;2.95;;
75400;SDS011;63974;47.538;18.972;2023-02-01T04:26:41;7.97;;;3.47;;
75400;SDS011;63974;47.538;18.972;2023-02-01T04:29:44;6.43;;;3.37;;
75400;SDS011;63974;47.538;18.972;2023-02-01T04:32:47;7.00;;;3.70;;
75400;SDS011;63974;47.538;18.972;2023-02-01T04:35:50;8.30;;;3.85;;
75400;SDS011;63974;47.538;18.972;2023-02-01T04:38:53;7.53;;;3.00;;
75400;SDS011;63974;47.538;18.972;2023-02-01T04:41:56;5.32;;;3.33;;
75400;SDS011;63974;47.538;18.972;2023-02-01T04:44:58;7.13;;;3.13;;
75400;SDS011;63974;47.538;18.972;2023-02-01T04:48:01;7.05;;;2.80;;
75400;SDS011;63974;47.538;18.972;2023-02-01T04:51:04;6.65;;;4.00;;
75400;SDS011;63974;47.538;18.972;2023-02-01T04:54:07;5.40;;;2.90;;
75400;SDS011;63974;47.538;18.972;2023-02-01T04:57:10;7.63;;;4.00;;
75400;SDS011;63974;47.538;18.972;2023-02-01T05:00:15;5.97;;;2.63;;
75400;SDS011;63974;47.538;18.972;2023-02-01T05:03:19;6.88;;;3.22;;
75400;SDS011;63974;47.538;18.972;2023-02-01T05:06:22;8.05;;;4.18;;
75400;SDS011;63974;47.538;18.972;2023-02-01T05:09:25;7.43;;;4.50;;
75400;SDS011;63974;47.538;18.972;2023-02-01T05:12:28;8.35;;;4.78;;
75400;SDS011;63974;47.538;18.972;2023-02-01T05:15:50;8.23;;;3.60;;
75400;SDS011;63974;47.538;18.972;2023-02-01T05:18:53;12.73;;;3.97;;
75400;SDS011;63974;47.538;18.972;2023-02-01T05:21:56;6.55;;;3.50;;
75400;SDS011;63974;47.538;18.972;2023-02-01T05:24:59;7.35;;;3.17;;
75400;SDS011;63974;47.538;18.972;2023-02-01T05:28:02;9.52;;;4.30;;
75400;SDS011;63974;47.538;18.972;2023-02-01T05:31:09;9.40;;;4.23;;
75400;SDS011;63974;47.538;18.972;2023-02-01T05:34:13;6.75;;;3.13;;
75400;SDS011;63974;47.538;18.972;2023-02-01T05:37:16;9.20;;;3.88;;
75400;SDS011;63974;47.538;18.972;2023-02-01T05:40:19;10.70;;;4.55;;
75400;SDS011;63974;47.538;18.972;2023-02-01T05:43:23;8.25;;;4.40;;
75400;SDS011;63974;47.538;18.972;2023-02-01T05:46:26;9.73;;;4.60;;
75400;SDS011;63974;47.538;18.972;2023-02-01T05:49:29;9.77;;;4.70;;
75400;SDS011;63974;47.538;18.972;2023-02-01T05:52:31;9.88;;;5.03;;
75400;SDS011;63974;47.538;18.972;2023-02-01T05:55:38;12.13;;;6.22;;
75400;SDS011;63974;47.538;18.972;2023-02-01T05:58:41;13.70;;;5.50;;
75400;SDS011;63974;47.538;18.972;2023-02-01T06:01:44;19.20;;;7.87;;
75400;SDS011;63974;47.538;18.972;2023-02-01T06:04:47;24.63;;;9.05;;
75400;SDS011;63974;47.538;18.972;2023-02-01T06:07:50;24.08;;;10.10;;
75400;SDS011;63974;47.538;18.972;2023-02-01T06:10:59;23.90;;;11.50;;
75400;SDS011;63974;47.538;18.972;2023-02-01T06:14:03;15.23;;;7.28;;
75400;SDS011;63974;47.538;18.972;2023-02-01T06:17:06;16.07;;;6.00;;
75400;SDS011;63974;47.538;18.972;2023-02-01T06:20:09;10.85;;;5.20;;
75400;SDS011;63974;47.538;18.972;2023-02-01T06:23:13;11.95;;;4.88;;
75400;SDS011;63974;47.538;18.972;2023-02-01T06:26:16;10.60;;;4.32;;
75400;SDS011;63974;47.538;18.972;2023-02-01T06:29:20;8.77;;;5.35;;
75400;SDS011;63974;47.538;18.972;2023-02-01T06:32:23;12.80;;;4.73;;
75400;SDS011;63974;47.538;18.972;2023-02-01T06:35:26;9.43;;;5.22;;
75400;SDS011;63974;47.538;18.972;2023-02-01T06:38:29;10.18;;;5.25;;
75400;SDS011;63974;47.538;18.972;2023-02-01T06:41:33;10.23;;;5.10;;
75400;SDS011;63974;47.538;18.972;2023-02-01T06:44:37;11.95;;;5.50;;
75400;SDS011;63974;47.538;18.972;2023-02-01T06:47:39;13.73;;;6.17;;
75400;SDS011;63974;47.538;18.972;2023-02-01T06:50:42;16.73;;;6.88;;
75400;SDS011;63974;47.538;18.972;2023-02-01T06:53:45;13.20;;;6.35;;
75400;SDS011;63974;47.538;18.972;2023-02-01T06:56:48;10.73;;;5.43;;
75400;SDS011;63974;47.538;18.972;2023-02-01T06:59:50;18.58;;;9.85;;
75400;SDS011;63974;47.538;18.972;2023-02-01T07:02:53;11.77;;;6.90;;
75400;SDS011;63974;47.538;18.972;2023-02-01T07:05:57;10.88;;;5.60;;
75400;SDS011;63974;47.538;18.972;2023-02-01T07:09:02;11.27;;;5.63;;
75400;SDS011;63974;47.538;18.972;2023-02-01T07:12:06;12.57;;;5.63;;
75400;SDS011;63974;47.538;18.972;2023-02-01T07:15:09;13.57;;;7.00;;
75400;SDS011;63974;47.538;18.972;2023-02-01T07:18:12;17.07;;;7.57;;
75400;SDS011;63974;47.538;18.972;2023-02-01T07:21:16;13.10;;;6.28;;
75400;SDS011;63974;47.538;18.972;2023-02-01T07:24:20;15.43;;;7.50;;
75400;SDS011;63974;47.538;18.972;2023-02-01T07:27:22;14.43;;;7.25;;
75400;SDS011;63974;47.538;18.972;2023-02-01T07:30:27;23.40;;;11.02;;
75400;SDS011;63974;47.538;18.972;2023-02-01T07:33:30;23.30;;;10.07;;
75400;SDS011;63974;47.538;18.972;2023-02-01T07:36:33;14.45;;;6.72;;
75400;SDS011;63974;47.538;18.972;2023-02-01T07:39:36;11.65;;;6.80;;
75400;SDS011;63974;47.538;18.972;2023-02-01T07:42:39;14.98;;;5.55;;
75400;SDS011;63974;47.538;18.972;2023-02-01T07:45:42;13.30;;;5.90;;
75400;SDS011;63974;47.538;18.972;2023-02-01T07:48:47;17.03;;;9.07;;
75400;SDS011;63974;47.538;18.972;2023-02-01T07:51:50;13.95;;;7.22;;
75400;SDS011;63974;47.538;18.972;2023-02-01T07:54:53;16.90;;;9.82;;
75400;SDS011;63974;47.538;18.972;2023-02-01T07:57:59;16.58;;;8.18;;
75400;SDS011;63974;47.538;18.972;2023-02-01T08:01:01;10.52;;;5.38;;
75400;SDS011;63974;47.538;18.972;2023-02-01T08:04:23;10.80;;;5.27;;
75400;SDS011;63974;47.538;18.972;2023-02-01T08:07:26;12.95;;;5.40;;
75400;SDS011;63974;47.538;18.972;2023-02-01T08:10:28;13.50;;;5.85;;
75400;SDS011;63974;47.538;18.972;2023-02-01T08:13:33;15.45;;;6.82;;
75400;SDS011;63974;47.538;18.972;2023-02-01T08:16:37;14.77;;;7.53;;
75400;SDS011;63974;47.538;18.972;2023-02-01T08:19:41;11.53;;;5.80;;
75400;SDS011;63974;47.538;18.972;2023-02-01T08:22:44;14.52;;;6.45;;
75400;SDS011;63974;47.538;18.972;2023-02-01T08:25:47;11.98;;;6.28;;
75400;SDS011;63974;47.538;18.972;2023-02-01T08:28:51;15.02;;;6.20;;
75400;SDS011;63974;47.538;18.972;2023-02-01T08:31:58;19.63;;;6.53;;
75400;SDS011;63974;47.538;18.972;2023-02-01T08:35:02;14.43;;;6.47;;
75400;SDS011;63974;47.538;18.972;2023-02-01T08:38:05;13.63;;;6.30;;
75400;SDS011;63974;47.538;18.972;2023-02-01T08:41:18;11.23;;;5.72;;
75400;SDS011;63974;47.538;18.972;2023-02-01T08:44:22;10.70;;;5.85;;
75400;SDS011;63974;47.538;18.972;2023-02-01T08:47:25;17.33;;;7.03;;
75400;SDS011;63974;47.538;18.972;2023-02-01T08:50:28;13.00;;;6.03;;
75400;SDS011;63974;47.538;18.972;2023-02-01T08:53:31;10.13;;;5.90;;
75400;SDS011;63974;47.538;18.972;2023-02-01T08:56:34;10.95;;;5.82;;
75400;SDS011;63974;47.538;18.972;2023-02-01T08:59:37;12.45;;;5.70;;
75400;SDS011;63974;47.538;18.972;2023-02-01T09:02:40;12.45;;;6.22;;
75400;SDS011;63974;47.538;18.972;2023-02-01T09:05:44;12.23;;;5.23;;
75400;SDS011;63974;47.538;18.972;2023-02-01T09:08:51;12.38;;;5.22;;
75400;SDS011;63974;47.538;18.972;2023-02-01T09:11:54;11.35;;;5.88;;
75400;SDS011;63974;47.538;18.972;2023-02-01T09:14:57;12.75;;;5.93;;
75400;SDS011;63974;47.538;18.972;2023-02-01T09:18:02;10.52;;;5.30;;
75400;SDS011;63974;47.538;18.972;2023-02-01T09:21:05;9.27;;;4.80;;
75400;SDS011;63974;47.538;18.972;2023-02-01T09:24:11;11.25;;;5.18;;
75400;SDS011;63974;47.538;18.972;2023-02-01T09:27:14;13.35;;;5.68;;
75400;SDS011;63974;47.538;18.972;2023-02-01T09:30:18;12.00;;;5.65;;
75400;SDS011;63974;47.538;18.972;2023-02-01T09:33:21;12.75;;;6.20;;
75400;SDS011;63974;47.538;18.972;2023-02-01T09:36:26;10.13;;;5.30;;
75400;SDS011;63974;47.538;18.972;2023-02-01T09:39:32;13.57;;;5.35;;
75400;SDS011;63974;47.538;18.972;2023-02-01T09:49:09;10.32;;;5.68;;
75400;SDS011;63974;47.538;18.972;2023-02-01T09:52:16;9.87;;;5.30;;
75400;SDS011;63974;47.538;18.972;2023-02-01T09:58:44;8.23;;;4.95;;
75400;SDS011;63974;47.538;18.972;2023-02-01T10:01:50;10.43;;;5.05;;
75400;SDS011;63974;47.538;18.972;2023-02-01T10:04:54;8.75;;;4.93;;
75400;SDS011;63974;47.538;18.972;2023-02-01T10:08:22;10.40;;;4.83;;
75400;SDS011;63974;47.538;18.972;2023-02-01T10:21:56;12.73;;;5.13;;
75400;SDS011;63974;47.538;18.972;2023-02-01T10:28:28;8.98;;;4.22;;
75400;SDS011;63974;47.538;18.972;2023-02-01T10:31:36;8.82;;;4.47;;
75400;SDS011;63974;47.538;18.972;2023-02-01T10:34:41;7.72;;;4.20;;
75400;SDS011;63974;47.538;18.972;2023-02-01T10:37:46;6.82;;;3.90;;
75400;SDS011;63974;47.538;18.972;2023-02-01T10:40:51;10.57;;;4.50;;
75400;SDS011;63974;47.538;18.972;2023-02-01T10:43:56;8.15;;;4.53;;
75400;SDS011;63974;47.538;18.972;2023-02-01T10:47:00;6.70;;;4.47;;
75400;SDS011;63974;47.538;18.972;2023-02-01T10:53:22;5.18;;;2.83;;
75400;SDS011;63974;47.538;18.972;2023-02-01T10:56:30;7.20;;;2.93;;
75400;SDS011;63974;47.538;18.972;2023-02-01T10:59:33;5.75;;;2.60;;
75400;SDS011;63974;47.538;18.972;2023-02-01T11:02:38;7.20;;;3.10;;
75400;SDS011;63974;47.538;18.972;2023-02-01T11:05:47;7.82;;;2.95;;
75400;SDS011;63974;47.538;18.972;2023-02-01T11:08:52;5.57;;;2.30;;
75400;SDS011;63974;47.538;18.972;2023-02-01T11:11:57;4.07;;;2.13;;
75400;SDS011;63974;47.538;18.972;2023-02-01T11:18:17;6.18;;;2.45;;
75400;SDS011;63974;47.538;18.972;2023-02-01T11:21:21;4.97;;;2.50;;
75400;SDS011;63974;47.538;18.972;2023-02-01T11:24:26;6.15;;;2.58;;
75400;SDS011;63974;47.538;18.972;2023-02-01T11:27:33;7.83;;;2.83;;
75400;SDS011;63974;47.538;18.972;2023-02-01T11:30:44;6.47;;;2.70;;
75400;SDS011;63974;47.538;18.972;2023-02-01T11:33:51;6.60;;;3.20;;
75400;SDS011;63974;47.538;18.972;2023-02-01T11:36:58;4.07;;;2.58;;
75400;SDS011;63974;47.538;18.972;2023-02-01T11:43:27;5.90;;;2.13;;
75400;SDS011;63974;47.538;18.972;2023-02-01T11:46:32;6.75;;;2.47;;
75400;SDS011;63974;47.538;18.972;2023-02-01T11:49:36;7.47;;;2.55;;
75400;SDS011;63974;47.538;18.972;2023-02-01T11:56:04;7.07;;;2.78;;
75400;SDS011;63974;47.538;18.972;2023-02-01T12:02:49;6.32;;;2.70;;
75400;SDS011;63974;47.538;18.972;2023-02-01T12:12:56;8.48;;;4.95;;
75400;SDS011;63974;47.538;18.972;2023-02-01T12:16:28;11.07;;;5.20;;
75400;SDS011;63974;47.538;18.972;2023-02-01T12:30:31;5.40;;;3.05;;
75400;SDS011;63974;47.538;18.972;2023-02-01T12:40:21;6.65;;;3.17;;
75400;SDS011;63974;47.538;18.972;2023-02-01T12:43:59;7.57;;;3.38;;
75400;SDS011;63974;47.538;18.972;2023-02-01T12:50:45;8.13;;;3.70;;
75400;SDS011;63974;47.538;18.972;2023-02-01T12:57:15;20.88;;;8.20;;
75400;SDS011;63974;47.538;18.972;2023-02-01T13:03:44;9.02;;;3.88;;
75400;SDS011;63974;47.538;18.972;2023-02-01T13:10:18;12.75;;;5.10;;
75400;SDS011;63974;47.538;18.972;2023-02-01T13:13:44;8.50;;;3.92;;
75400;SDS011;63974;47.538;18.972;2023-02-01T13:16:52;6.80;;;3.20;;
75400;SDS011;63974;47.538;18.972;2023-02-01T13:26:43;7.30;;;3.25;;
75400;SDS011;63974;47.538;18.972;2023-02-01T13:29:55;8.35;;;3.70;;
75400;SDS011;63974;47.538;18.972;2023-02-01T13:43:41;6.95;;;3.35;;
75400;SDS011;63974;47.538;18.972;2023-02-01T13:46:48;6.10;;;3.22;;
75400;SDS011;63974;47.538;18.972;2023-02-01T13:49:56;5.65;;;2.92;;
75400;SDS011;63974;47.538;18.972;2023-02-01T13:56:15;17.00;;;8.50;;
75400;SDS011;63974;47.538;18.972;2023-02-01T14:09:10;8.88;;;4.68;;
75400;SDS011;63974;47.538;18.972;2023-02-01T14:22:33;11.02;;;5.68;;
75400;SDS011;63974;47.538;18.972;2023-02-01T14:25:36;11.18;;;6.40;;
75400;SDS011;63974;47.538;18.972;2023-02-01T14:28:41;8.77;;;4.53;;
75400;SDS011;63974;47.538;18.972;2023-02-01T14:31:54;7.90;;;4.03;;
75400;SDS011;63974;47.538;18.972;2023-02-01T14:35:02;10.18;;;4.50;;
75400;SDS011;63974;47.538;18.972;2023-02-01T14:38:10;8.25;;;4.70;;
75400;SDS011;63974;47.538;18.972;2023-02-01T14:41:17;10.35;;;5.47;;
75400;SDS011;63974;47.538;18.972;2023-02-01T14:44:29;9.83;;;5.33;;
75400;SDS011;63974;47.538;18.972;2023-02-01T14:47:34;9.30;;;3.75;;
75400;SDS011;63974;47.538;18.972;2023-02-01T14:50:43;9.27;;;4.28;;
75400;SDS011;63974;47.538;18.972;2023-02-01T14:53:48;13.23;;;5.55;;
75400;SDS011;63974;47.538;18.972;2023-02-01T14:56:53;9.52;;;5.15;;
75400;SDS011;63974;47.538;18.972;2023-02-01T15:00:04;10.43;;;6.47;;
75400;SDS011;63974;47.538;18.972;2023-02-01T15:03:15;11.40;;;5.70;;
75400;SDS011;63974;47.538;18.972;2023-02-01T15:09:32;7.75;;;4.32;;
75400;SDS011;63974;47.538;18.972;2023-02-01T15:12:41;8.38;;;5.60;;
75400;SDS011;63974;47.538;18.972;2023-02-01T15:15:59;9.60;;;4.87;;
75400;SDS011;63974;47.538;18.972;2023-02-01T15:19:13;11.27;;;4.38;;
75400;SDS011;63974;47.538;18.972;2023-02-01T15:22:18;7.63;;;4.65;;
75400;SDS011;63974;47.538;18.972;2023-02-01T15:25:25;10.57;;;4.80;;
75400;SDS011;63974;47.538;18.972;2023-02-01T15:28:29;8.88;;;4.50;;
75400;SDS011;63974;47.538;18.972;2023-02-01T15:31:51;10.13;;;4.27;;
75400;SDS011;63974;47.538;18.972;2023-02-01T15:34:55;8.38;;;3.53;;
75400;SDS011;63974;47.538;18.972;2023-02-01T15:41:34;8.23;;;4.07;;
75400;SDS011;63974;47.538;18.972;2023-02-01T15:44:40;8.55;;;4.88;;
75400;SDS011;63974;47.538;18.972;2023-02-01T15:47:48;7.87;;;3.77;;
75400;SDS011;63974;47.538;18.972;2023-02-01T15:50:53;7.90;;;3.95;;
75400;SDS011;63974;47.538;18.972;2023-02-01T15:54:01;8.18;;;4.55;;
75400;SDS011;63974;47.538;18.972;2023-02-01T15:57:06;8.88;;;3.90;;
75400;SDS011;63974;47.538;18.972;2023-02-01T16:00:28;10.55;;;5.72;;
75400;SDS011;63974;47.538;18.972;2023-02-01T16:03:46;11.63;;;5.10;;
75400;SDS011;63974;47.538;18.972;2023-02-01T16:06:51;9.60;;;4.72;;
75400;SDS011;63974;47.538;18.972;2023-02-01T16:09:58;10.05;;;5.38;;
75400;SDS011;63974;47.538;18.972;2023-02-01T16:13:08;8.85;;;4.60;;
75400;SDS011;63974;47.538;18.972;2023-02-01T16:16:12;9.98;;;5.13;;
75400;SDS011;63974;47.538;18.972;2023-02-01T16:19:16;18.77;;;8.63;;
75400;SDS011;63974;47.538;18.972;2023-02-01T16:22:19;23.60;;;9.48;;
75400;SDS011;63974;47.538;18.972;2023-02-01T16:25:22;15.35;;;6.60;;
75400;SDS011;63974;47.538;18.972;2023-02-01T16:28:25;12.93;;;6.20;;
75400;SDS011;63974;47.538;18.972;2023-02-01T16:31:29;9.60;;;4.20;;
75400;SDS011;63974;47.538;18.972;2023-02-01T16:34:34;9.27;;;4.93;;
75400;SDS011;63974;47.538;18.972;2023-02-01T16:37:38;9.50;;;4.88;;
75400;SDS011;63974;47.538;18.972;2023-02-01T16:40:41;9.50;;;4.55;;
75400;SDS011;63974;47.538;18.972;2023-02-01T16:43:45;8.05;;;3.92;;
75400;SDS011;63974;47.538;18.972;2023-02-01T16:46:52;7.43;;;3.90;;
75400;SDS011;63974;47.538;18.972;2023-02-01T16:49:55;9.67;;;4.20;;
75400;SDS011;63974;47.538;18.972;2023-02-01T16:52:58;9.00;;;4.07;;
75400;SDS011;63974;47.538;18.972;2023-02-01T16:56:01;10.95;;;5.00;;
75400;SDS011;63974;47.538;18.972;2023-02-01T16:59:08;8.85;;;5.05;;
75400;SDS011;63974;47.538;18.972;2023-02-01T17:02:14;10.50;;;5.60;;
75400;SDS011;63974;47.538;18.972;2023-02-01T17:05:19;8.67;;;4.83;;
75400;SDS011;63974;47.538;18.972;2023-02-01T17:08:26;8.07;;;4.93;;
75400;SDS011;63974;47.538;18.972;2023-02-01T17:11:36;7.90;;;3.83;;
75400;SDS011;63974;47.538;18.972;2023-02-01T17:14:41;8.68;;;4.40;;
75400;SDS011;63974;47.538;18.972;2023-02-01T17:17:44;11.50;;;5.50;;
75400;SDS011;63974;47.538;18.972;2023-02-01T17:20:47;9.33;;;5.50;;
75400;SDS011;63974;47.538;18.972;2023-02-01T17:23:51;8.57;;;4.43;;
75400;SDS011;63974;47.538;18.972;2023-02-01T17:26:55;6.50;;;2.97;;
75400;SDS011;63974;47.538;18.972;2023-02-01T17:29:58;7.38;;;3.05;;
75400;SDS011;63974;47.538;18.972;2023-02-01T17:33:02;5.00;;;3.13;;
75400;SDS011;63974;47.538;18.972;2023-02-01T17:36:22;7.30;;;2.87;;
75400;SDS011;63974;47.538;18.972;2023-02-01T17:39:26;4.00;;;2.35;;
75400;SDS011;63974;47.538;18.972;2023-02-01T17:42:48;4.63;;;2.42;;
75400;SDS011;63974;47.538;18.972;2023-02-01T17:45:52;6.40;;;2.58;;
75400;SDS011;63974;47.538;18.972;2023-02-01T17:49:00;10.88;;;5.70;;
75400;SDS011;63974;47.538;18.972;2023-02-01T17:52:05;9.83;;;4.40;;
75400;SDS011;63974;47.538;18.972;2023-02-01T17:55:26;16.52;;;6.38;;
75400;SDS011;63974;47.538;18.972;2023-02-01T17:58:29;10.05;;;5.20;;
75400;SDS011;63974;47.538;18.972;2023-02-01T18:01:34;10.05;;;4.18;;
75400;SDS011;63974;47.538;18.972;2023-02-01T18:04:37;20.20;;;8.95;;
75400;SDS011;63974;47.538;18.972;2023-02-01T18:07:40;8.67;;;5.00;;
75400;SDS011;63974;47.538;18.972;2023-02-01T18:10:43;8.90;;;4.68;;
75400;SDS011;63974;47.538;18.972;2023-02-01T18:13:46;9.50;;;4.18;;
75400;SDS011;63974;47.538;18.972;2023-02-01T18:16:50;8.05;;;3.95;;
75400;SDS011;63974;47.538;18.972;2023-02-01T18:19:53;8.32;;;3.97;;
75400;SDS011;63974;47.538;18.972;2023-02-01T18:22:56;7.13;;;3.70;;
75400;SDS011;63974;47.538;18.972;2023-02-01T18:25:59;9.23;;;3.75;;
75400;SDS011;63974;47.538;18.972;2023-02-01T18:29:02;8.77;;;4.03;;
75400;SDS011;63974;47.538;18.972;2023-02-01T18:32:05;7.25;;;3.00;;
75400;SDS011;63974;47.538;18.972;2023-02-01T18:35:13;7.57;;;4.13;;
75400;SDS011;63974;47.538;18.972;2023-02-01T18:38:25;5.20;;;3.03;;
75400;SDS011;63974;47.538;18.972;2023-02-01T18:41:28;7.72;;;3.22;;
75400;SDS011;63974;47.538;18.972;2023-02-01T18:44:31;9.00;;;3.85;;
75400;SDS011;63974;47.538;18.972;2023-02-01T18:47:34;8.57;;;3.67;;
75400;SDS011;63974;47.538;18.972;2023-02-01T18:50:38;8.73;;;3.65;;
75400;SDS011;63974;47.538;18.972;2023-02-01T18:53:43;5.83;;;3.03;;
75400;SDS011;63974;47.538;18.972;2023-02-01T18:56:46;5.32;;;2.78;;
75400;SDS011;63974;47.538;18.972;2023-02-01T18:59:49;5.00;;;2.50;;
75400;SDS011;63974;47.538;18.972;2023-02-01T19:02:52;3.50;;;2.20;;
75400;SDS011;63974;47.538;18.972;2023-02-01T19:05:55;4.35;;;2.38;;
75400;SDS011;63974;47.538;18.972;2023-02-01T19:08:59;3.67;;;1.63;;
75400;SDS011;63974;47.538;18.972;2023-02-01T19:12:02;3.85;;;1.65;;
75400;SDS011;63974;47.538;18.972;2023-02-01T19:15:06;3.95;;;1.70;;
75400;SDS011;63974;47.538;18.972;2023-02-01T19:18:17;29.20;;;2.25;;
75400;SDS011;63974;47.538;18.972;2023-02-01T19:21:21;3.13;;;1.95;;
75400;SDS011;63974;47.538;18.972;2023-02-01T19:24:25;4.33;;;1.73;;
75400;SDS011;63974;47.538;18.972;2023-02-01T19:27:29;3.30;;;1.63;;
75400;SDS011;63974;47.538;18.972;2023-02-01T19:30:32;3.42;;;1.90;;
75400;SDS011;63974;47.538;18.972;2023-02-01T19:33:36;3.67;;;1.70;;
75400;SDS011;63974;47.538;18.972;2023-02-01T19:36:39;3.47;;;2.28;;
75400;SDS011;63974;47.538;18.972;2023-02-01T19:39:44;3.43;;;1.53;;
75400;SDS011;63974;47.538;18.972;2023-02-01T19:42:47;5.75;;;1.95;;
75400;SDS011;63974;47.538;18.972;2023-02-01T19:45:51;4.93;;;2.05;;
75400;SDS011;63974;47.538;18.972;2023-02-01T19:48:55;4.78;;;2.72;;
75400;SDS011;63974;47.538;18.972;2023-02-01T19:52:00;4.07;;;2.30;;
75400;SDS011;63974;47.538;18.972;2023-02-01T19:55:03;9.00;;;2.93;;
75400;SDS011;63974;47.538;18.972;2023-02-01T19:58:07;6.15;;;2.70;;
75400;SDS011;63974;47.538;18.972;2023-02-01T20:01:10;10.00;;;3.78;;
75400;SDS011;63974;47.538;18.972;2023-02-01T20:04:15;7.20;;;3.90;;
75400;SDS011;63974;47.538;18.972;2023-02-01T20:07:19;9.25;;;3.67;;
75400;SDS011;63974;47.538;18.972;2023-02-01T20:10:22;10.03;;;3.33;;
75400;SDS011;63974;47.538;18.972;2023-02-01T20:13:26;6.28;;;3.05;;
75400;SDS011;63974;47.538;18.972;2023-02-01T20:16:29;24.48;;;8.18;;
75400;SDS011;63974;47.538;18.972;2023-02-01T20:19:33;26.75;;;8.27;;
75400;SDS011;63974;47.538;18.972;2023-02-01T20:22:37;114.25;;;32.80;;
75400;SDS011;63974;47.538;18.972;2023-02-01T20:25:40;40.63;;;11.80;;
75400;SDS011;63974;47.538;18.972;2023-02-01T20:28:43;38.30;;;11.20;;
75400;SDS011;63974;47.538;18.972;2023-02-01T20:31:46;31.48;;;10.23;;
75400;SDS011;63974;47.538;18.972;2023-02-01T20:34:49;28.58;;;8.77;;
75400;SDS011;63974;47.538;18.972;2023-02-01T20:37:55;30.73;;;9.63;;
75400;SDS011;63974;47.538;18.972;2023-02-01T20:41:01;28.67;;;9.67;;